Details From SBEG - Eduardo Gomes
To SBFZ - Pinto Martins
Flight Number -
Tags decoded
Created
Modified
Stats Distance 1,291 nm / 2,390 km
Max Altitude 0 ft / 0 m
Waypoints 2
Social Downloads 2
Likes 0
Share VATSIM

Download

Looking for another format? Having issues loading an existing format? Contact us
Advertisement - Login to hide

Notes

Requested: SBEG MASDU1 SBFZ Unmatched points: MASDU1

Route

SBEG SBFZ

ID Type Via Altitude Latitude Longitude Leg Dist Tot Dist Heading (true) Name
O SBEG APT - 0 ft / 0 m -3.03861˚ -60.04972˚ - 0 nm - Eduardo Gomes
O SBFZ APT - 0 ft / 0 m -3.77628˚ -38.53256˚ 1290 nm 1290 nm 93° / 91° Pinto Martins

Altitude Profile

Advertisement - Login to hide

Weather


0- 5 10 15 20 25 30 35+ Temperature / ° C

Clouds and Precipitation
Forecast for 2017-12-17 06:00 UTC. Updated an hour ago

Ground ~20,000 ft ~40,000 ft Winds

SBEG

Details ICAO SBEG (MAO)
Name Eduardo Gomes
Region Brazil
Timezone America/Manaus (UTC-4.0)
Stats Elevation 264 ft / 80 m (AMSL)
Location -3.038611° -60.049723°
Runways 1
Magnetic Variation 15.762° W

METAR

SBEG 170400Z 00000KT 9999 FEW010 BKN090 25/23 Q1011

Decode

TAF

TAF SBEG 162200Z 1700/1724 03005KT 9999 FEW015 TN23/1706Z TX30/1716Z BECMG 1701/1703 00000KT FEW010 BECMG 1705/1707 33002KT BECMG 1709/1711 06005KT BECMG 1713/1715 SCT018 BECMG 1717/1719 04010KT 9999 TSRA SCT020 FEW025CB BECMG 1721/1723 06005KT 9999 FEW015 RMK PDY

Decode

Departure Runways

ID Width Length Bearing (true) Bearing (mag) Surface Threshold Offset Overrun Length
10 148 ft / 45 m 8,867 ft / 2,703 m 90.13° 105.89° Asphalt 0 ft / 0 m 215 ft / 66 m
28 148 ft / 45 m 8,867 ft / 2,703 m 270.13° 285.89° Asphalt 0 ft / 0 m 250 ft / 76 m

SBFZ

Details ICAO SBFZ (FOR)
Name Pinto Martins
Region Brazil
Timezone America/Fortaleza (UTC-3.0)
Stats Elevation 82 ft / 25 m (AMSL)
Location -3.776283° -38.532556°
Runways 1
Magnetic Variation 21.125° W

METAR

SBFZ 170400Z 08012KT 9999 FEW021 27/22 Q1011

Decode

TAF

TAF SBFZ 162200Z 1700/1724 08009KT 9999 SCT020 TN26/1707Z TX31/1715Z BECMG 1709/1710 08014KT BKN022 BECMG 1714/1715 SCT025 BECMG 1721/1722 08009KT RMK PEU

Decode

Destination Runways

ID Width Length Bearing (true) Bearing (mag) Surface Threshold Offset Overrun Length
13 148 ft / 45 m 8,360 ft / 2,548 m 104.88° 126.01° Asphalt 0 ft / 0 m 195 ft / 59 m
31 148 ft / 45 m 8,360 ft / 2,548 m 284.88° 306.01° Asphalt 0 ft / 0 m 125 ft / 38 m

Approach Navaids

Runway Type Ident Frequency Range Bearing (true) Bearing (mag) Slope Elevation
13 Localiser IFZ 109.30 MHz 18 nm / 33 km 105.09° 126.22° - 82 ft / 25 m (AMSL)
13 Glidescope IFZ 109.30 MHz 10 nm / 19 km 104.88° 126.01° 3.00° 82 ft / 25 m (AMSL)
13 DME IFZ 109.30 MHz 18 nm / 33 km - - - 82 ft / 25 m (AMSL)

Popular Alternatives